createdAt,value
2023-02-08T00:00:49.400Z,16.00
2023-02-08T00:03:17.050Z,14.40
2023-02-08T00:05:44.501Z,15.50
2023-02-08T00:08:11.845Z,14.37
2023-02-08T00:10:39.605Z,14.03
2023-02-08T00:13:07.153Z,12.47
2023-02-08T00:15:35.091Z,15.77
2023-02-08T00:18:02.452Z,15.50
2023-02-08T00:20:29.747Z,15.30
2023-02-08T00:22:57.442Z,14.50
2023-02-08T00:25:24.762Z,15.37
2023-02-08T00:27:52.031Z,14.63
2023-02-08T00:30:19.387Z,15.50
2023-02-08T00:32:46.912Z,14.30
2023-02-08T00:35:14.254Z,15.57
2023-02-08T00:37:41.976Z,15.30
2023-02-08T00:40:10.067Z,13.63
2023-02-08T00:42:37.349Z,15.40
2023-02-08T00:45:04.699Z,15.83
2023-02-08T00:47:32.052Z,16.70
2023-02-08T00:49:59.886Z,13.17
2023-02-08T00:52:28.208Z,13.20
2023-02-08T00:54:55.681Z,14.13
2023-02-08T00:57:23.026Z,11.80
2023-02-08T00:59:50.313Z,12.97
2023-02-08T01:02:17.768Z,13.27
2023-02-08T01:04:45.023Z,12.70
2023-02-08T01:07:12.337Z,11.87
2023-02-08T01:09:39.742Z,10.93
2023-02-08T01:12:07.204Z,13.03
2023-02-08T01:14:34.642Z,11.30
2023-02-08T01:17:01.867Z,11.90
2023-02-08T01:19:29.241Z,12.57
2023-02-08T01:21:56.507Z,13.40
2023-02-08T01:24:23.908Z,12.10
2023-02-08T01:26:51.223Z,14.60
2023-02-08T01:29:18.536Z,12.13
2023-02-08T01:31:46.353Z,11.20
2023-02-08T01:34:14.130Z,11.60
2023-02-08T01:36:41.463Z,12.20
2023-02-08T01:39:10.079Z,11.70
2023-02-08T01:41:43.919Z,11.33
2023-02-08T01:44:14.289Z,11.40
2023-02-08T01:46:51.192Z,12.30
2023-02-08T01:49:39.143Z,10.90
2023-02-08T01:52:13.149Z,11.40
2023-02-08T01:54:57.346Z,13.17
2023-02-08T01:57:26.213Z,11.53
2023-02-08T02:00:01.601Z,14.20
2023-02-08T02:02:29.113Z,11.40
2023-02-08T02:04:56.572Z,11.97
2023-02-08T02:07:28.836Z,11.33
2023-02-08T02:09:58.366Z,11.33
2023-02-08T02:12:26.110Z,14.00
2023-02-08T02:14:53.488Z,12.10
2023-02-08T02:17:21.302Z,11.00
2023-02-08T02:20:08.392Z,11.00
2023-02-08T02:23:13.933Z,11.90
2023-02-08T02:26:22.360Z,12.63
2023-02-08T02:29:20.298Z,12.07
2023-02-08T02:32:19.954Z,10.80
2023-02-08T02:35:07.676Z,11.20
2023-02-08T02:37:58.956Z,11.10
2023-02-08T02:41:13.931Z,10.00
2023-02-08T02:43:52.954Z,10.60
2023-02-08T02:46:42.003Z,10.70
2023-02-08T02:49:38.931Z,9.87
2023-02-08T02:52:12.856Z,9.07
2023-02-08T02:54:58.259Z,11.73
2023-02-08T02:57:32.526Z,10.63
2023-02-08T03:00:00.754Z,10.60
2023-02-08T03:02:28.779Z,9.80
2023-02-08T03:04:57.527Z,11.90
2023-02-08T03:07:43.393Z,10.20
2023-02-08T03:10:29.082Z,11.67
2023-02-08T03:13:23.987Z,10.23
2023-02-08T03:16:08.669Z,9.77
2023-02-08T03:18:55.914Z,14.60
2023-02-08T03:21:33.491Z,7.90
2023-02-08T03:24:23.343Z,10.87
2023-02-08T03:27:00.943Z,9.33
2023-02-08T03:30:00.140Z,11.33
2023-02-08T03:32:43.268Z,11.17
2023-02-08T03:35:36.392Z,10.97
2023-02-08T03:38:19.492Z,9.57
2023-02-08T03:40:51.762Z,10.10
2023-02-08T03:43:28.257Z,10.80
2023-02-08T03:46:12.394Z,10.87
2023-02-08T03:48:45.041Z,12.40
2023-02-08T03:51:12.854Z,12.63
2023-02-08T03:53:42.909Z,10.83
2023-02-08T03:56:23.126Z,10.60
2023-02-08T03:59:00.388Z,10.10
2023-02-08T04:01:38.485Z,10.27
2023-02-08T04:04:06.160Z,11.13
2023-02-08T04:06:33.614Z,11.10
2023-02-08T04:09:00.891Z,10.17
2023-02-08T04:11:28.276Z,11.63
2023-02-08T04:13:55.562Z,11.60
2023-02-08T04:16:22.899Z,10.60
2023-02-08T04:18:50.303Z,12.10
2023-02-08T04:21:17.589Z,11.27
2023-02-08T04:23:44.832Z,10.40
2023-02-08T04:26:12.131Z,9.70
2023-02-08T04:28:39.438Z,10.20
2023-02-08T04:31:06.908Z,8.83
2023-02-08T04:33:34.284Z,11.37
2023-02-08T04:36:01.555Z,10.10
2023-02-08T04:38:28.876Z,8.87
2023-02-08T04:40:56.284Z,10.20
2023-02-08T04:43:23.665Z,8.63
2023-02-08T04:45:51.597Z,10.40
2023-02-08T04:48:19.813Z,9.50
2023-02-08T04:50:47.200Z,10.40
2023-02-08T04:53:14.588Z,8.80
2023-02-08T04:55:41.954Z,9.37
2023-02-08T04:58:09.192Z,9.50
2023-02-08T05:00:36.711Z,8.63
2023-02-08T05:03:04.634Z,9.07
2023-02-08T05:05:32.733Z,9.80
2023-02-08T05:08:00.176Z,8.97
2023-02-08T05:10:27.505Z,10.70
2023-02-08T05:12:55.383Z,8.57
2023-02-08T05:15:22.680Z,10.53
2023-02-08T05:17:50.359Z,7.47
2023-02-08T05:20:18.032Z,9.07
2023-02-08T05:22:45.293Z,8.50
2023-02-08T05:25:12.544Z,11.10
2023-02-08T05:27:39.894Z,9.30
2023-02-08T05:30:07.600Z,8.90
2023-02-08T05:32:34.976Z,7.60
2023-02-08T05:35:02.289Z,9.87
2023-02-08T05:37:29.635Z,10.30
2023-02-08T05:39:56.971Z,11.73
2023-02-08T05:42:24.317Z,8.80
2023-02-08T05:44:52.434Z,8.93
2023-02-08T05:47:19.787Z,9.77
2023-02-08T05:49:47.181Z,8.67
2023-02-08T05:52:14.432Z,9.40
2023-02-08T05:54:41.757Z,12.07
2023-02-08T05:57:09.070Z,12.40
2023-02-08T05:59:36.355Z,10.77
2023-02-08T06:02:03.732Z,9.80
2023-02-08T06:04:31.170Z,13.30
2023-02-08T06:06:58.443Z,16.10
2023-02-08T06:09:25.757Z,24.20
2023-02-08T06:11:53.047Z,16.50
2023-02-08T06:14:20.414Z,10.60
2023-02-08T06:16:48.148Z,8.60
2023-02-08T06:19:15.643Z,8.07
2023-02-08T06:21:43.006Z,8.87
2023-02-08T06:24:11.459Z,11.60
2023-02-08T06:26:38.729Z,10.43
2023-02-08T06:29:06.176Z,8.90
2023-02-08T06:31:33.533Z,8.23
2023-02-08T06:34:00.826Z,9.60
2023-02-08T06:36:28.203Z,9.33
2023-02-08T06:38:55.501Z,10.77
2023-02-08T06:41:22.847Z,9.67
2023-02-08T06:43:50.141Z,10.97
2023-02-08T06:46:17.693Z,10.20
2023-02-08T06:48:44.968Z,11.20
2023-02-08T06:51:12.261Z,8.70
2023-02-08T06:53:39.602Z,9.97
2023-02-08T06:56:07.083Z,10.43
2023-02-08T06:58:34.588Z,9.40
2023-02-08T07:01:01.953Z,9.43
2023-02-08T07:03:29.222Z,10.33
2023-02-08T07:06:05.034Z,9.20
2023-02-08T07:08:34.146Z,12.07
2023-02-08T07:11:05.795Z,14.00
2023-02-08T07:13:33.048Z,7.90
2023-02-08T07:16:00.464Z,10.83
2023-02-08T07:18:27.816Z,10.07
2023-02-08T07:20:55.104Z,10.43
2023-02-08T07:23:22.371Z,12.17
2023-02-08T07:26:04.736Z,10.33
2023-02-08T07:28:32.284Z,10.97
2023-02-08T07:30:59.710Z,9.53
2023-02-08T07:33:27.107Z,9.57
2023-02-08T07:35:54.356Z,8.23
2023-02-08T07:38:21.658Z,10.07
2023-02-08T07:40:49.302Z,12.20
2023-02-08T07:43:16.802Z,16.50
2023-02-08T07:45:44.308Z,13.83
2023-02-08T07:48:11.546Z,11.40
2023-02-08T07:50:39.172Z,11.40
2023-02-08T07:53:06.579Z,10.73
2023-02-08T07:55:33.842Z,11.27
2023-02-08T07:58:01.180Z,12.50
2023-02-08T08:00:28.081Z,11.23
2023-02-08T08:02:55.319Z,11.50
2023-02-08T08:05:23.699Z,13.03
2023-02-08T08:07:50.975Z,12.20
2023-02-08T08:10:18.368Z,11.20
2023-02-08T08:12:45.638Z,14.60
2023-02-08T08:15:13.140Z,11.23
2023-02-08T08:17:42.232Z,14.37
2023-02-08T08:20:11.040Z,11.63
2023-02-08T08:22:38.222Z,10.43
2023-02-08T08:25:05.794Z,8.30
2023-02-08T08:27:35.176Z,10.37
2023-02-08T08:30:03.414Z,10.10
2023-02-08T08:32:30.887Z,10.27
2023-02-08T08:34:58.169Z,10.90
2023-02-08T08:37:25.476Z,10.47
2023-02-08T08:39:52.621Z,11.50
2023-02-08T08:42:20.934Z,12.67
2023-02-08T08:44:48.407Z,12.80
2023-02-08T08:47:15.811Z,11.83
2023-02-08T08:49:43.829Z,16.47
2023-02-08T08:52:12.820Z,11.87
2023-02-08T08:54:40.332Z,11.70
2023-02-08T08:57:07.736Z,11.20
2023-02-08T08:59:35.451Z,22.90
2023-02-08T09:02:02.421Z,14.10
2023-02-08T09:04:29.772Z,11.37
2023-02-08T09:06:56.698Z,12.87
2023-02-08T09:09:23.568Z,13.87
2023-02-08T09:11:51.021Z,13.30
2023-02-08T09:14:18.304Z,13.97
2023-02-08T09:16:48.135Z,12.40
2023-02-08T09:19:16.284Z,15.50
2023-02-08T09:21:43.947Z,12.90
2023-02-08T09:24:11.480Z,13.67
2023-02-08T09:26:38.925Z,13.30
2023-02-08T09:29:07.092Z,14.43
2023-02-08T09:31:37.821Z,13.50
2023-02-08T09:34:06.096Z,13.67
2023-02-08T09:36:36.385Z,14.17
2023-02-08T09:39:14.708Z,12.47
2023-02-08T09:41:53.734Z,14.83
2023-02-08T09:45:21.584Z,13.90
2023-02-08T09:47:50.989Z,15.20
2023-02-08T09:50:45.397Z,25.13
2023-02-08T09:53:22.672Z,17.00
2023-02-08T09:56:00.715Z,18.83
2023-02-08T09:58:41.946Z,15.83
2023-02-08T10:01:21.444Z,16.20
2023-02-08T10:03:53.919Z,16.73
2023-02-08T10:06:21.158Z,15.90
2023-02-08T10:08:51.211Z,16.57
2023-02-08T10:11:36.072Z,16.63
2023-02-08T10:14:18.673Z,15.00
2023-02-08T10:17:19.208Z,15.70
2023-02-08T10:20:16.179Z,13.97
2023-02-08T10:22:59.201Z,14.03
2023-02-08T10:26:18.547Z,14.27
2023-02-08T10:29:19.447Z,14.47
2023-02-08T10:32:35.296Z,14.20
2023-02-08T10:35:15.777Z,11.13
2023-02-08T10:37:44.766Z,13.80
2023-02-08T10:40:36.862Z,20.23
2023-02-08T10:43:17.959Z,15.07
2023-02-08T10:45:56.098Z,14.17
2023-02-08T10:48:52.917Z,13.57
2023-02-08T10:51:21.349Z,13.37
2023-02-08T10:53:48.958Z,15.57
2023-02-08T10:56:44.706Z,13.30
2023-02-08T10:59:35.920Z,14.90
2023-02-08T11:02:03.081Z,17.20
2023-02-08T11:04:30.038Z,17.40
2023-02-08T11:06:57.057Z,15.80
2023-02-08T11:09:32.390Z,17.07
2023-02-08T11:12:01.304Z,19.07
2023-02-08T11:14:47.127Z,15.70
2023-02-08T11:17:31.959Z,14.70
2023-02-08T11:19:59.735Z,14.07
2023-02-08T11:22:31.289Z,12.40
2023-02-08T11:25:05.648Z,10.60
2023-02-08T11:27:40.451Z,10.57
2023-02-08T11:30:13.870Z,29.70
2023-02-08T11:32:47.101Z,25.37
2023-02-08T11:35:24.703Z,16.50
2023-02-08T11:37:55.530Z,16.30
2023-02-08T11:40:30.046Z,16.40
2023-02-08T11:42:57.660Z,15.80
2023-02-08T11:45:36.274Z,13.80
2023-02-08T11:48:05.039Z,14.80
2023-02-08T11:50:38.357Z,14.00
2023-02-08T11:53:19.331Z,11.67
2023-02-08T11:55:46.247Z,11.70
2023-02-08T11:58:13.010Z,9.53
2023-02-08T12:00:41.077Z,8.90
2023-02-08T12:03:36.595Z,7.80
2023-02-08T12:07:02.591Z,6.60
2023-02-08T12:10:07.335Z,4.60
2023-02-08T12:12:38.446Z,6.20
2023-02-08T12:15:28.683Z,8.90
2023-02-08T12:18:26.730Z,8.40
2023-02-08T12:21:10.718Z,4.90
2023-02-08T12:23:47.724Z,4.80
2023-02-08T12:26:52.644Z,3.67
2023-02-08T12:29:47.313Z,8.50
2023-02-08T12:33:07.273Z,4.83
2023-02-08T12:36:11.244Z,3.57
2023-02-08T12:39:23.331Z,3.50
2023-02-08T12:42:10.421Z,4.00
2023-02-08T12:45:33.893Z,4.27
2023-02-08T12:48:58.351Z,7.47
2023-02-08T12:51:55.323Z,11.90
2023-02-08T12:54:36.391Z,4.07
2023-02-08T12:57:05.770Z,4.90
2023-02-08T12:59:40.245Z,4.47
2023-02-08T13:02:33.156Z,5.00
2023-02-08T13:05:05.270Z,4.00
2023-02-08T13:07:39.370Z,5.23
2023-02-08T13:10:31.848Z,4.80
2023-02-08T13:13:16.665Z,4.50
2023-02-08T13:15:50.614Z,4.37
2023-02-08T13:18:46.526Z,4.30
2023-02-08T13:21:20.040Z,4.07
2023-02-08T13:23:52.953Z,5.13
2023-02-08T13:26:27.686Z,4.37
2023-02-08T13:28:59.425Z,5.40
2023-02-08T13:31:41.370Z,5.30
2023-02-08T13:34:28.398Z,5.23
2023-02-08T13:36:59.912Z,5.70
2023-02-08T13:39:46.806Z,5.47
2023-02-08T13:42:39.710Z,5.13
2023-02-08T13:45:09.372Z,5.33
2023-02-08T13:47:51.990Z,5.40
2023-02-08T13:50:52.799Z,4.83
2023-02-08T13:53:39.609Z,5.97
2023-02-08T13:56:13.143Z,4.97
2023-02-08T13:58:42.738Z,5.73
2023-02-08T14:01:24.247Z,4.70
2023-02-08T14:04:12.146Z,5.70
2023-02-08T14:06:41.926Z,4.80
2023-02-08T14:09:51.308Z,5.10
2023-02-08T14:12:34.607Z,6.50
2023-02-08T14:15:15.222Z,7.30
2023-02-08T14:17:51.354Z,7.20
2023-02-08T14:20:39.803Z,6.60
2023-02-08T14:23:27.809Z,7.37
2023-02-08T14:25:57.544Z,6.67
2023-02-08T14:28:34.220Z,7.10
2023-02-08T14:31:07.249Z,7.87
2023-02-08T14:33:54.066Z,8.67
2023-02-08T14:36:34.309Z,6.67
2023-02-08T14:39:25.084Z,6.10
2023-02-08T14:42:01.040Z,6.87
2023-02-08T14:44:43.178Z,8.93
2023-02-08T14:47:25.187Z,7.73
2023-02-08T14:50:11.497Z,8.13
2023-02-08T14:52:39.290Z,7.07
2023-02-08T14:55:26.954Z,6.80
2023-02-08T14:58:00.863Z,7.57
2023-02-08T15:00:34.685Z,7.77
2023-02-08T15:03:04.462Z,8.20
2023-02-08T15:05:41.922Z,10.00
2023-02-08T15:08:09.117Z,9.80
2023-02-08T15:10:45.028Z,8.80
2023-02-08T15:13:24.289Z,10.00
2023-02-08T15:15:57.593Z,10.70
2023-02-08T15:18:31.032Z,8.93
2023-02-08T15:21:04.897Z,8.17
2023-02-08T15:23:32.016Z,7.80
2023-02-08T15:26:05.905Z,10.10
2023-02-08T15:28:37.123Z,8.63
2023-02-08T15:31:10.212Z,10.17
2023-02-08T15:33:44.922Z,10.33
2023-02-08T15:36:35.332Z,13.80
2023-02-08T15:39:25.742Z,13.90
2023-02-08T15:41:57.096Z,15.10
2023-02-08T15:44:31.494Z,14.97
2023-02-08T15:47:05.542Z,13.97
2023-02-08T15:49:37.231Z,15.03
2023-02-08T15:52:05.389Z,14.83
2023-02-08T15:54:32.429Z,17.03
2023-02-08T15:57:08.036Z,15.67
2023-02-08T15:59:40.079Z,15.17
2023-02-08T16:02:31.216Z,16.10
2023-02-08T16:05:10.775Z,16.53
2023-02-08T16:07:48.801Z,19.97
2023-02-08T16:10:24.165Z,19.03
2023-02-08T16:12:59.570Z,20.07
2023-02-08T16:15:46.940Z,22.27
2023-02-08T16:18:32.652Z,26.57
2023-02-08T16:21:02.023Z,24.97
2023-02-08T16:23:35.066Z,22.27
2023-02-08T16:26:28.487Z,19.73
2023-02-08T16:29:21.744Z,23.93
2023-02-08T16:31:57.608Z,21.43
2023-02-08T16:34:24.672Z,20.97
2023-02-08T16:36:52.681Z,21.37
2023-02-08T16:39:23.599Z,22.50
2023-02-08T16:41:58.828Z,20.83
2023-02-08T16:44:35.975Z,21.20
2023-02-08T16:47:35.438Z,21.07
2023-02-08T16:50:03.153Z,19.13
2023-02-08T16:52:30.407Z,19.17
2023-02-08T16:54:58.545Z,17.30
2023-02-08T16:57:37.826Z,14.97
2023-02-08T17:00:24.071Z,16.10
2023-02-08T17:02:52.515Z,14.93
2023-02-08T17:05:21.915Z,14.53
2023-02-08T17:07:50.145Z,14.50
2023-02-08T17:10:31.328Z,20.70
2023-02-08T17:13:18.859Z,16.90
2023-02-08T17:15:49.997Z,18.67
2023-02-08T17:18:17.072Z,20.40
2023-02-08T17:20:44.176Z,20.27
2023-02-08T17:23:11.852Z,18.60
2023-02-08T17:25:39.480Z,19.83
2023-02-08T17:28:18.233Z,16.70
2023-02-08T17:30:46.275Z,12.77
2023-02-08T17:33:20.128Z,14.83
2023-02-08T17:35:50.477Z,15.87
2023-02-08T17:38:19.296Z,15.30
2023-02-08T17:40:46.705Z,17.53
2023-02-08T17:43:14.623Z,18.80
2023-02-08T17:45:44.148Z,16.67
2023-02-08T17:48:13.528Z,17.30
2023-02-08T17:50:43.941Z,16.50
2023-02-08T17:53:11.633Z,14.93
2023-02-08T17:55:42.754Z,16.00
2023-02-08T17:58:09.966Z,17.63
2023-02-08T18:00:37.252Z,16.70
2023-02-08T18:03:04.636Z,16.10
2023-02-08T18:05:32.085Z,13.57
2023-02-08T18:07:59.664Z,12.97
2023-02-08T18:10:28.342Z,12.53
2023-02-08T18:12:55.833Z,14.37
2023-02-08T18:15:24.067Z,11.80
2023-02-08T18:17:51.030Z,11.20
2023-02-08T18:20:18.382Z,12.00
2023-02-08T18:22:45.880Z,11.47
2023-02-08T18:25:13.954Z,11.87
2023-02-08T18:27:41.568Z,12.13
2023-02-08T18:30:11.566Z,12.50
2023-02-08T18:32:39.543Z,13.00
2023-02-08T18:35:07.931Z,14.50
2023-02-08T18:37:36.594Z,15.00
2023-02-08T18:40:05.986Z,14.30
2023-02-08T18:42:35.708Z,15.33
2023-02-08T18:45:04.426Z,15.10
2023-02-08T18:47:31.347Z,13.50
2023-02-08T18:49:58.695Z,14.70
2023-02-08T18:52:26.110Z,17.27
2023-02-08T18:54:53.575Z,21.20
2023-02-08T18:57:21.187Z,18.67
2023-02-08T18:59:48.537Z,16.50
2023-02-08T19:02:22.335Z,15.53
2023-02-08T19:04:49.838Z,19.00
2023-02-08T19:07:17.163Z,19.17
2023-02-08T19:09:44.547Z,16.60
2023-02-08T19:12:15.551Z,16.37
2023-02-08T19:14:43.397Z,17.03
2023-02-08T19:17:12.431Z,16.47
2023-02-08T19:19:41.636Z,18.90
2023-02-08T19:22:08.916Z,21.60
2023-02-08T19:24:36.168Z,19.33
2023-02-08T19:27:03.522Z,26.30
2023-02-08T19:29:32.591Z,37.83
2023-02-08T19:31:59.922Z,28.37
2023-02-08T19:34:27.383Z,23.47
2023-02-08T19:36:55.233Z,18.93
2023-02-08T19:39:27.206Z,15.50
2023-02-08T19:41:55.020Z,16.20
2023-02-08T19:44:22.617Z,17.47
2023-02-08T19:46:52.996Z,16.47
2023-02-08T19:49:20.793Z,15.00
2023-02-08T19:51:48.077Z,15.20
2023-02-08T19:54:18.341Z,16.07
2023-02-08T19:56:46.279Z,14.40
2023-02-08T19:59:29.297Z,14.27
2023-02-08T20:01:56.637Z,14.23
2023-02-08T20:04:24.511Z,14.17
2023-02-08T20:06:53.298Z,14.90
2023-02-08T20:09:21.083Z,14.53
2023-02-08T20:11:56.874Z,12.70
2023-02-08T20:14:26.347Z,15.30
2023-02-08T20:16:53.976Z,17.90
2023-02-08T20:19:21.457Z,32.73
2023-02-08T20:21:48.778Z,24.37
2023-02-08T20:24:15.983Z,16.70
2023-02-08T20:26:45.621Z,13.80
2023-02-08T20:29:13.441Z,13.07
2023-02-08T20:31:43.597Z,12.93
2023-02-08T20:34:14.232Z,11.57
2023-02-08T20:36:47.630Z,12.27
2023-02-08T20:39:20.702Z,11.50
2023-02-08T20:41:48.131Z,11.03
2023-02-08T20:44:17.924Z,11.80
2023-02-08T20:46:45.200Z,11.20
2023-02-08T20:49:15.216Z,12.00
2023-02-08T20:51:43.452Z,13.57
2023-02-08T20:54:11.404Z,15.00
2023-02-08T20:56:39.019Z,14.73
2023-02-08T20:59:09.154Z,14.40
2023-02-08T21:01:37.096Z,14.40
2023-02-08T21:04:05.410Z,14.13
2023-02-08T21:06:36.409Z,15.20
2023-02-08T21:09:11.121Z,15.50
2023-02-08T21:11:38.534Z,14.47
2023-02-08T21:14:06.743Z,15.27
2023-02-08T21:16:34.485Z,15.27
2023-02-08T21:19:01.889Z,14.63
2023-02-08T21:21:29.320Z,14.40
2023-02-08T21:23:57.893Z,15.50
2023-02-08T21:26:26.301Z,12.90
2023-02-08T21:28:58.657Z,12.27
2023-02-08T21:31:26.481Z,11.87
2023-02-08T21:33:54.007Z,12.80
2023-02-08T21:36:23.785Z,11.63
2023-02-08T21:38:51.684Z,13.73
2023-02-08T21:41:26.592Z,13.87
2023-02-08T21:43:56.836Z,12.67
2023-02-08T21:46:30.444Z,10.93
2023-02-08T21:49:16.955Z,11.20
2023-02-08T21:52:03.276Z,11.60
2023-02-08T21:54:43.938Z,11.23
2023-02-08T21:57:37.807Z,10.63
2023-02-08T22:00:08.108Z,10.57
2023-02-08T22:02:35.907Z,9.87
2023-02-08T22:05:04.327Z,12.03
2023-02-08T22:07:45.738Z,11.80
2023-02-08T22:10:16.360Z,14.00
2023-02-08T22:12:43.737Z,12.20
2023-02-08T22:15:14.359Z,11.13
2023-02-08T22:17:41.867Z,12.77
2023-02-08T22:20:10.621Z,12.60
2023-02-08T22:22:38.089Z,14.10
2023-02-08T22:25:05.777Z,15.30
2023-02-08T22:27:33.058Z,14.70
2023-02-08T22:30:00.339Z,13.73
2023-02-08T22:32:27.699Z,12.90
2023-02-08T22:34:55.015Z,13.77
2023-02-08T22:37:22.376Z,13.10
2023-02-08T22:39:49.395Z,14.30
2023-02-08T22:42:16.770Z,11.77
2023-02-08T22:44:45.142Z,12.30
2023-02-08T22:47:13.238Z,11.20
2023-02-08T22:49:40.749Z,13.10
2023-02-08T22:52:08.827Z,13.27
2023-02-08T22:54:36.516Z,11.33
2023-02-08T22:57:05.937Z,12.50
2023-02-08T22:59:33.810Z,11.93
2023-02-08T23:02:01.719Z,11.00
2023-02-08T23:04:29.181Z,10.00
2023-02-08T23:06:57.077Z,11.73
2023-02-08T23:09:24.506Z,12.20
2023-02-08T23:11:51.967Z,11.10
2023-02-08T23:14:19.463Z,11.20
2023-02-08T23:16:46.940Z,11.87
2023-02-08T23:19:18.568Z,11.27
2023-02-08T23:21:46.071Z,10.33
2023-02-08T23:24:13.677Z,11.37
2023-02-08T23:26:41.092Z,10.73
2023-02-08T23:29:08.635Z,10.03
2023-02-08T23:31:36.233Z,9.83
2023-02-08T23:34:03.696Z,10.50
2023-02-08T23:36:31.071Z,11.30
2023-02-08T23:38:58.427Z,11.53
2023-02-08T23:41:25.796Z,11.77
2023-02-08T23:43:53.346Z,11.57
2023-02-08T23:46:24.992Z,11.90
2023-02-08T23:48:52.545Z,11.00
2023-02-08T23:51:22.931Z,12.53
2023-02-08T23:53:51.098Z,11.60
2023-02-08T23:56:22.143Z,11.77
2023-02-08T23:58:52.886Z,11.70
